createdAt,value
2023-04-03T00:00:53.547Z,0.00
2023-04-03T00:01:52.870Z,0.00
2023-04-03T00:02:52.994Z,0.00
2023-04-03T00:03:53.763Z,0.00
2023-04-03T00:04:52.738Z,0.00
2023-04-03T00:05:52.743Z,0.00
2023-04-03T00:06:52.664Z,0.00
2023-04-03T00:07:52.618Z,0.00
2023-04-03T00:08:53.772Z,0.00
2023-04-03T00:09:52.561Z,0.00
2023-04-03T00:10:52.715Z,0.00
2023-04-03T00:11:53.509Z,0.00
2023-04-03T00:12:52.462Z,0.00
2023-04-03T00:13:52.529Z,0.00
2023-04-03T00:14:52.441Z,0.00
2023-04-03T00:15:52.441Z,0.00
2023-04-03T00:16:52.330Z,0.00
2023-04-03T00:17:52.307Z,0.00
2023-04-03T00:18:57.008Z,0.00
2023-04-03T00:19:53.036Z,0.00
2023-04-03T00:20:52.216Z,0.00
2023-04-03T00:21:52.219Z,0.00
2023-04-03T00:22:52.045Z,0.00
2023-04-03T00:23:52.565Z,0.00
2023-04-03T00:24:52.115Z,0.00
2023-04-03T00:25:51.955Z,0.00
2023-04-03T00:26:53.508Z,0.00
2023-04-03T00:27:51.914Z,0.00
2023-04-03T00:28:51.818Z,0.00
2023-04-03T00:29:53.011Z,0.00
2023-04-03T00:30:52.188Z,0.00
2023-04-03T00:31:51.779Z,0.00
2023-04-03T00:32:51.708Z,0.00
2023-04-03T00:33:52.568Z,0.00
2023-04-03T00:34:52.552Z,0.00
2023-04-03T00:35:51.775Z,0.00
2023-04-03T00:36:51.694Z,0.00
2023-04-03T00:37:51.468Z,0.00
2023-04-03T00:38:51.423Z,0.00
2023-04-03T00:39:51.443Z,0.00
2023-04-03T00:40:51.403Z,0.00
2023-04-03T00:41:51.331Z,0.00
2023-04-03T00:42:51.262Z,0.00
2023-04-03T00:43:51.220Z,0.00
2023-04-03T00:44:51.180Z,0.00
2023-04-03T00:45:51.170Z,0.00
2023-04-03T00:46:51.186Z,0.00
2023-04-03T00:47:51.087Z,0.00
2023-04-03T00:48:51.038Z,0.00
2023-04-03T00:49:51.072Z,0.00
2023-04-03T00:50:50.960Z,0.00
2023-04-03T00:51:50.916Z,0.00
2023-04-03T00:52:50.921Z,0.00
2023-04-03T00:53:50.844Z,0.00
2023-04-03T00:54:50.807Z,0.00
2023-04-03T00:55:50.773Z,0.00
2023-04-03T00:56:50.744Z,0.00
2023-04-03T00:57:50.680Z,0.00
2023-04-03T00:58:50.702Z,0.00
2023-04-03T00:59:50.610Z,0.00
2023-04-03T01:00:50.583Z,0.00
2023-04-03T01:01:50.600Z,0.00
2023-04-03T01:02:50.595Z,0.00
2023-04-03T01:03:50.474Z,0.00
2023-04-03T01:04:50.472Z,0.00
2023-04-03T01:05:50.371Z,0.00
2023-04-03T01:06:50.330Z,0.00
2023-04-03T01:07:50.307Z,0.00
2023-04-03T01:08:50.254Z,0.00
2023-04-03T01:09:50.213Z,0.00
2023-04-03T01:10:50.229Z,0.00
2023-04-03T01:11:50.213Z,0.00
2023-04-03T01:12:50.101Z,0.00
2023-04-03T01:13:50.050Z,0.00
2023-04-03T01:14:50.024Z,0.00
2023-04-03T01:15:50.017Z,0.00
2023-04-03T01:16:50.003Z,0.00
2023-04-03T01:17:49.911Z,0.00
2023-04-03T01:18:49.856Z,0.00
2023-04-03T01:19:49.845Z,0.00
2023-04-03T01:20:49.779Z,0.00
2023-04-03T01:21:49.740Z,0.00
2023-04-03T01:22:49.765Z,0.00
2023-04-03T01:23:49.684Z,0.00
2023-04-03T01:24:49.633Z,0.00
2023-04-03T01:25:49.595Z,0.00
2023-04-03T01:26:49.556Z,0.00
2023-04-03T01:27:49.587Z,0.00
2023-04-03T01:28:49.538Z,0.00
2023-04-03T01:29:49.520Z,0.00
2023-04-03T01:30:49.400Z,0.00
2023-04-03T01:31:50.376Z,0.00
2023-04-03T01:32:49.343Z,0.00
2023-04-03T01:33:49.287Z,0.00
2023-04-03T01:34:49.287Z,0.00
2023-04-03T01:35:49.256Z,0.00
2023-04-03T01:36:49.155Z,0.00
2023-04-03T01:37:49.125Z,0.00
2023-04-03T01:38:49.086Z,0.00
2023-04-03T01:39:49.036Z,0.00
2023-04-03T01:40:49.058Z,0.00
2023-04-03T01:41:48.970Z,0.00
2023-04-03T01:42:48.935Z,0.00
2023-04-03T01:43:48.877Z,0.00
2023-04-03T01:44:48.847Z,0.00
2023-04-03T01:45:48.862Z,0.00
2023-04-03T01:46:48.832Z,0.00
2023-04-03T01:47:48.753Z,0.00
2023-04-03T01:48:48.683Z,0.00
2023-04-03T01:49:48.652Z,0.00
2023-04-03T01:50:58.150Z,0.00
2023-04-03T01:51:48.634Z,0.00
2023-04-03T01:52:48.526Z,0.00
2023-04-03T01:53:48.499Z,0.00
2023-04-03T01:54:48.453Z,0.00
2023-04-03T01:55:48.418Z,0.00
2023-04-03T01:56:48.374Z,0.00
2023-04-03T01:57:48.394Z,0.00
2023-04-03T01:58:48.288Z,0.00
2023-04-03T01:59:48.258Z,0.00
2023-04-03T02:00:48.221Z,0.00
2023-04-03T02:01:48.178Z,0.00
2023-04-03T02:02:48.173Z,0.00
2023-04-03T02:03:48.211Z,0.00
2023-04-03T02:04:48.064Z,0.00
2023-04-03T02:05:48.021Z,0.00
2023-04-03T02:06:47.977Z,0.00
2023-04-03T02:07:47.955Z,0.00
2023-04-03T02:08:47.893Z,0.00
2023-04-03T02:09:47.937Z,0.00
2023-04-03T02:10:47.829Z,0.00
2023-04-03T02:11:47.785Z,0.00
2023-04-03T02:12:48.558Z,0.00
2023-04-03T02:13:47.703Z,0.00
2023-04-03T02:14:47.656Z,0.00
2023-04-03T02:15:47.692Z,0.00
2023-04-03T02:16:47.671Z,0.00
2023-04-03T02:17:47.573Z,0.00
2023-04-03T02:18:47.510Z,0.00
2023-04-03T02:19:47.470Z,0.00
2023-04-03T02:20:47.427Z,0.00
2023-04-03T02:21:47.454Z,0.00
2023-04-03T02:22:47.345Z,0.00
2023-04-03T02:23:47.311Z,0.00
2023-04-03T02:24:47.292Z,0.00
2023-04-03T02:25:47.279Z,0.00
2023-04-03T02:26:47.183Z,0.00
2023-04-03T02:27:47.222Z,0.00
2023-04-03T02:28:47.196Z,0.00
2023-04-03T02:29:47.069Z,0.00
2023-04-03T02:30:47.107Z,0.00
2023-04-03T02:31:47.001Z,0.00
2023-04-03T02:32:46.966Z,0.00
2023-04-03T02:33:46.966Z,0.00
2023-04-03T02:34:46.871Z,0.00
2023-04-03T02:35:46.870Z,0.00
2023-04-03T02:36:46.812Z,0.00
2023-04-03T02:37:46.761Z,0.00
2023-04-03T02:38:46.777Z,0.00
2023-04-03T02:39:46.674Z,0.00
2023-04-03T02:40:46.640Z,0.00
2023-04-03T02:41:46.597Z,0.00
2023-04-03T02:42:46.554Z,0.00
2023-04-03T02:43:46.522Z,0.00
2023-04-03T02:44:46.544Z,0.00
2023-04-03T02:45:46.467Z,0.00
2023-04-03T02:46:46.413Z,0.00
2023-04-03T02:47:46.401Z,0.00
2023-04-03T02:48:46.325Z,0.00
2023-04-03T02:49:46.296Z,0.00
2023-04-03T02:50:46.301Z,0.00
2023-04-03T02:51:46.208Z,0.00
2023-04-03T02:52:46.228Z,0.00
2023-04-03T02:53:46.126Z,0.00
2023-04-03T02:54:46.093Z,0.00
2023-04-03T02:55:46.116Z,0.00
2023-04-03T02:56:46.018Z,0.00
2023-04-03T02:57:45.974Z,0.00
2023-04-03T02:58:45.934Z,0.00
2023-04-03T02:59:45.897Z,0.00
2023-04-03T03:00:45.863Z,0.00
2023-04-03T03:01:45.896Z,0.00
2023-04-03T03:02:45.818Z,0.00
2023-04-03T03:03:45.740Z,0.00
2023-04-03T03:04:45.757Z,0.00
2023-04-03T03:05:45.664Z,0.00
2023-04-03T03:06:45.664Z,0.00
2023-04-03T03:07:45.581Z,0.00
2023-04-03T03:08:45.535Z,0.00
2023-04-03T03:09:45.505Z,0.00
2023-04-03T03:10:45.452Z,0.00
2023-04-03T03:11:45.738Z,0.00
2023-04-03T03:12:45.381Z,0.00
2023-04-03T03:13:45.345Z,0.00
2023-04-03T03:14:45.295Z,0.00
2023-04-03T03:15:45.282Z,0.00
2023-04-03T03:16:45.297Z,0.00
2023-04-03T03:17:45.234Z,0.00
2023-04-03T03:18:45.141Z,0.00
2023-04-03T03:19:45.098Z,0.00
2023-04-03T03:20:45.058Z,0.00
2023-04-03T03:21:45.024Z,0.00
2023-04-03T03:22:45.043Z,0.00
2023-04-03T03:23:44.945Z,0.00
2023-04-03T03:24:44.932Z,0.00
2023-04-03T03:25:44.868Z,0.00
2023-04-03T03:26:44.827Z,0.00
2023-04-03T03:27:44.840Z,0.00
2023-04-03T03:28:44.736Z,0.00
2023-04-03T03:29:44.699Z,0.00
2023-04-03T03:30:44.666Z,0.00
2023-04-03T03:31:44.667Z,0.00
2023-04-03T03:32:44.617Z,0.00
2023-04-03T03:33:44.610Z,0.00
2023-04-03T03:34:44.502Z,0.00
2023-04-03T03:35:44.485Z,0.00
2023-04-03T03:36:44.420Z,0.00
2023-04-03T03:37:44.388Z,0.00
2023-04-03T03:38:44.352Z,0.00
2023-04-03T03:39:44.411Z,0.00
2023-04-03T03:40:44.264Z,0.00
2023-04-03T03:41:44.228Z,0.00
2023-04-03T03:42:44.191Z,0.00
2023-04-03T03:43:44.147Z,0.00
2023-04-03T03:44:44.113Z,0.00
2023-04-03T03:45:44.122Z,0.00
2023-04-03T03:46:44.083Z,0.00
2023-04-03T03:47:44.020Z,0.00
2023-04-03T03:48:43.947Z,0.00
2023-04-03T03:49:43.907Z,0.00
2023-04-03T03:50:43.865Z,0.00
2023-04-03T03:51:43.890Z,0.00
2023-04-03T03:52:43.787Z,0.00
2023-04-03T03:53:43.756Z,0.00
2023-04-03T03:54:43.726Z,0.00
2023-04-03T03:55:43.684Z,0.00
2023-04-03T03:56:43.630Z,0.00
2023-04-03T03:57:43.659Z,0.00
2023-04-03T03:58:43.564Z,0.00
2023-04-03T03:59:43.519Z,0.00
2023-04-03T04:00:43.488Z,0.00
2023-04-03T04:01:43.457Z,4.00
2023-04-03T04:02:43.475Z,0.00
2023-04-03T04:03:43.546Z,0.00
2023-04-03T04:04:43.318Z,4.00
2023-04-03T04:05:43.281Z,4.00
2023-04-03T04:06:43.265Z,4.00
2023-04-03T04:07:43.211Z,4.00
2023-04-03T04:08:43.180Z,4.00
2023-04-03T04:09:43.204Z,4.00
2023-04-03T04:10:43.090Z,4.00
2023-04-03T04:11:43.046Z,8.00
2023-04-03T04:12:43.018Z,4.00
2023-04-03T04:13:42.977Z,8.00
2023-04-03T04:14:42.934Z,12.00
2023-04-03T04:15:42.953Z,12.00
2023-04-03T04:16:42.883Z,12.00
2023-04-03T04:17:42.840Z,20.00
2023-04-03T04:18:42.767Z,24.00
2023-04-03T04:19:42.732Z,24.00
2023-04-03T04:20:42.724Z,28.00
2023-04-03T04:21:42.699Z,32.00
2023-04-03T04:22:42.610Z,40.00
2023-04-03T04:23:42.562Z,44.00
2023-04-03T04:24:42.533Z,52.00
2023-04-03T04:25:42.493Z,60.00
2023-04-03T04:26:42.442Z,68.00
2023-04-03T04:27:42.469Z,80.00
2023-04-03T04:28:42.376Z,88.00
2023-04-03T04:29:42.328Z,100.00
2023-04-03T04:30:42.309Z,116.00
2023-04-03T04:31:42.248Z,132.00
2023-04-03T04:32:42.271Z,144.00
2023-04-03T04:33:42.218Z,168.00
2023-04-03T04:34:42.144Z,184.00
2023-04-03T04:35:42.288Z,204.00
2023-04-03T04:36:42.109Z,224.00
2023-04-03T04:37:42.014Z,248.00
2023-04-03T04:38:41.973Z,272.00
2023-04-03T04:39:41.988Z,296.00
2023-04-03T04:40:41.884Z,328.00
2023-04-03T04:41:41.861Z,352.00
2023-04-03T04:42:41.805Z,384.00
2023-04-03T04:43:41.842Z,416.00
2023-04-03T04:44:41.732Z,448.00
2023-04-03T04:45:41.697Z,484.00
2023-04-03T04:46:41.664Z,516.00
2023-04-03T04:47:41.647Z,552.00
2023-04-03T04:48:41.624Z,588.00
2023-04-03T04:49:41.539Z,628.00
2023-04-03T04:50:41.529Z,664.00
2023-04-03T04:51:51.549Z,700.00
2023-04-03T04:52:41.431Z,744.00
2023-04-03T04:53:41.453Z,780.00
2023-04-03T04:54:41.352Z,824.00
2023-04-03T04:55:41.293Z,860.00
2023-04-03T04:56:41.258Z,900.00
2023-04-03T04:57:41.260Z,944.00
2023-04-03T04:58:41.341Z,988.00
2023-04-03T04:59:41.194Z,1028.00
2023-04-03T05:00:41.099Z,1068.00
2023-04-03T05:01:41.086Z,1108.00
2023-04-03T05:02:41.055Z,1148.00
2023-04-03T05:03:40.988Z,1188.00
2023-04-03T05:04:41.079Z,1228.00
2023-04-03T05:05:40.936Z,1264.00
2023-04-03T05:06:40.859Z,1308.00
2023-04-03T05:07:40.822Z,1344.00
2023-04-03T05:08:40.791Z,1384.00
2023-04-03T05:09:40.744Z,1424.00
2023-04-03T05:10:40.759Z,1460.00
2023-04-03T05:11:40.673Z,1500.00
2023-04-03T05:12:40.640Z,1532.00
2023-04-03T05:13:40.578Z,1572.00
2023-04-03T05:14:40.545Z,1612.00
2023-04-03T05:15:40.626Z,1644.00
2023-04-03T05:16:40.487Z,1680.00
2023-04-03T05:17:40.448Z,1712.00
2023-04-03T05:18:40.391Z,1748.00
2023-04-03T05:19:40.345Z,1784.00
2023-04-03T05:20:40.365Z,1812.00
2023-04-03T05:21:40.268Z,1844.00
2023-04-03T05:22:40.232Z,1872.00
2023-04-03T05:23:40.212Z,1904.00
2023-04-03T05:24:40.168Z,1936.00
2023-04-03T05:25:40.194Z,1968.00
2023-04-03T05:26:40.089Z,1996.00
2023-04-03T05:27:40.044Z,2028.00
2023-04-03T05:28:40.013Z,2056.00
2023-04-03T05:29:39.959Z,2080.00
2023-04-03T05:30:39.912Z,2112.00
2023-04-03T05:31:39.965Z,2132.00
2023-04-03T05:32:39.882Z,2160.00
2023-04-03T05:33:39.800Z,2188.00
2023-04-03T05:34:39.760Z,2212.00
2023-04-03T05:35:39.877Z,2236.00
2023-04-03T05:36:39.737Z,2264.00
2023-04-03T05:37:39.670Z,2288.00
2023-04-03T05:38:39.598Z,2308.00
2023-04-03T05:39:39.565Z,2332.00
2023-04-03T05:40:39.574Z,2356.00
2023-04-03T05:41:39.531Z,2384.00
2023-04-03T05:42:39.436Z,2408.00
2023-04-03T05:43:39.430Z,2432.00
2023-04-03T05:44:39.361Z,2452.00
2023-04-03T05:45:39.345Z,2472.00
2023-04-03T05:46:39.346Z,2492.00
2023-04-03T05:47:39.297Z,2508.00
2023-04-03T05:48:39.209Z,2524.00
2023-04-03T05:49:39.210Z,2540.00
2023-04-03T05:50:39.144Z,2560.00
2023-04-03T05:51:39.146Z,2576.00
2023-04-03T05:52:39.052Z,2588.00
2023-04-03T05:53:39.052Z,2604.00
2023-04-03T05:54:38.968Z,2624.00
2023-04-03T05:55:39.228Z,2644.00
2023-04-03T05:56:38.963Z,2664.00
2023-04-03T05:57:38.971Z,2676.00
2023-04-03T05:58:38.832Z,2700.00
2023-04-03T05:59:38.770Z,2720.00
2023-04-03T06:00:38.739Z,2752.00
2023-04-03T06:01:38.693Z,2776.00
2023-04-03T06:02:38.810Z,2808.00
2023-04-03T06:03:40.307Z,2844.00
2023-04-03T06:04:38.743Z,2880.00
2023-04-03T06:05:38.728Z,2940.00
2023-04-03T06:06:38.560Z,3028.00
2023-04-03T06:07:38.458Z,3160.00
2023-04-03T06:08:38.555Z,3376.00
2023-04-03T06:09:38.368Z,3852.00
2023-04-03T06:10:38.651Z,4940.00
2023-04-03T06:11:38.304Z,6428.00
2023-04-03T06:12:38.263Z,6932.00
2023-04-03T06:13:38.238Z,6820.00
2023-04-03T06:14:38.755Z,5956.00
2023-04-03T06:15:38.147Z,4968.00
2023-04-03T06:16:39.629Z,4612.00
2023-04-03T06:17:38.094Z,4300.00
2023-04-03T06:18:38.025Z,3980.00
2023-04-03T06:19:37.991Z,3948.00
2023-04-03T06:20:38.445Z,4256.00
2023-04-03T06:21:37.926Z,5580.00
2023-04-03T06:22:37.866Z,6644.00
2023-04-03T06:23:37.844Z,6276.00
2023-04-03T06:24:37.805Z,5356.00
2023-04-03T06:25:37.762Z,4608.00
2023-04-03T06:26:37.782Z,3664.00
2023-04-03T06:27:37.686Z,3568.00
2023-04-03T06:28:37.668Z,3628.00
2023-04-03T06:29:37.603Z,3376.00
2023-04-03T06:30:37.899Z,3144.00
2023-04-03T06:31:37.613Z,3128.00
2023-04-03T06:32:37.524Z,3132.00
2023-04-03T06:33:37.472Z,3136.00
2023-04-03T06:34:37.414Z,3144.00
2023-04-03T06:35:37.486Z,3156.00
2023-04-03T06:36:37.342Z,3152.00
2023-04-03T06:37:37.294Z,3152.00
2023-04-03T06:38:37.259Z,3156.00
2023-04-03T06:39:37.226Z,3040.00
2023-04-03T06:40:37.270Z,3044.00
2023-04-03T06:41:37.367Z,3144.00
2023-04-03T06:42:37.112Z,3140.00
2023-04-03T06:43:37.069Z,3112.00
2023-04-03T06:44:37.051Z,3132.00
2023-04-03T06:45:37.154Z,3160.00
2023-04-03T06:46:37.062Z,3172.00
2023-04-03T06:47:37.057Z,3192.00
2023-04-03T06:48:36.877Z,3220.00
2023-04-03T06:49:36.846Z,3228.00
2023-04-03T06:50:36.810Z,3252.00
2023-04-03T06:51:36.826Z,3300.00
2023-04-03T06:52:36.724Z,3420.00
2023-04-03T06:53:36.690Z,3592.00
2023-04-03T06:54:36.660Z,3852.00
2023-04-03T06:55:36.924Z,4680.00
2023-04-03T06:56:36.653Z,5304.00
2023-04-03T06:57:36.575Z,5708.00
2023-04-03T06:58:36.499Z,5140.00
2023-04-03T06:59:36.478Z,4628.00
2023-04-03T07:00:36.620Z,3840.00
2023-04-03T07:01:36.520Z,3428.00
2023-04-03T07:02:36.375Z,3336.00
2023-04-03T07:03:36.291Z,3328.00
2023-04-03T07:04:36.310Z,3340.00
2023-04-03T07:05:36.763Z,3352.00
2023-04-03T07:06:36.221Z,3360.00
2023-04-03T07:07:36.218Z,3376.00
2023-04-03T07:08:36.131Z,3384.00
2023-04-03T07:09:36.120Z,3412.00
2023-04-03T07:10:36.042Z,3364.00
2023-04-03T07:11:36.000Z,3452.00
2023-04-03T07:12:35.949Z,3472.00
2023-04-03T07:13:35.972Z,3480.00
2023-04-03T07:14:35.886Z,3484.00
2023-04-03T07:15:36.076Z,3424.00
2023-04-03T07:16:35.833Z,3500.00
2023-04-03T07:17:35.813Z,3460.00
2023-04-03T07:18:35.732Z,3540.00
2023-04-03T07:19:35.729Z,3588.00
2023-04-03T07:20:35.660Z,3952.00
2023-04-03T07:21:38.589Z,3576.00
2023-04-03T07:22:35.574Z,3404.00
2023-04-03T07:23:35.565Z,3604.00
2023-04-03T07:24:35.495Z,3548.00
2023-04-03T07:25:35.718Z,3552.00
2023-04-03T07:26:35.423Z,4008.00
2023-04-03T07:27:35.386Z,4480.00
2023-04-03T07:28:35.362Z,5332.00
2023-04-03T07:29:35.308Z,5492.00
2023-04-03T07:30:35.309Z,5416.00
2023-04-03T07:31:35.315Z,6204.00
2023-04-03T07:32:35.215Z,5876.00
2023-04-03T07:33:35.152Z,6320.00
2023-04-03T07:34:35.149Z,7116.00
2023-04-03T07:35:35.118Z,6776.00
2023-04-03T07:36:35.058Z,6236.00
2023-04-03T07:37:35.075Z,6256.00
2023-04-03T07:38:34.986Z,7336.00
2023-04-03T07:39:34.940Z,8596.00
2023-04-03T07:40:34.918Z,9208.00
2023-04-03T07:41:34.854Z,9612.00
2023-04-03T07:42:34.879Z,9824.00
2023-04-03T07:43:34.785Z,9000.00
2023-04-03T07:44:34.750Z,8140.00
2023-04-03T07:45:34.750Z,9528.00
2023-04-03T07:46:34.673Z,10020.00
2023-04-03T07:47:34.678Z,10212.00
2023-04-03T07:48:34.642Z,10520.00
2023-04-03T07:49:34.568Z,9656.00
2023-04-03T07:50:34.532Z,8524.00
2023-04-03T07:51:34.510Z,8724.00
2023-04-03T07:52:34.447Z,8588.00
2023-04-03T07:53:34.425Z,8080.00
2023-04-03T07:54:34.439Z,7700.00
2023-04-03T07:55:34.995Z,7168.00
2023-04-03T07:56:34.343Z,7172.00
2023-04-03T07:57:34.359Z,7652.00
2023-04-03T07:58:34.264Z,10172.00
2023-04-03T07:59:34.198Z,11612.00
2023-04-03T08:00:34.611Z,10800.00
2023-04-03T08:01:34.118Z,9856.00
2023-04-03T08:02:34.095Z,9532.00
2023-04-03T08:03:34.120Z,9528.00
2023-04-03T08:04:34.250Z,10436.00
2023-04-03T08:05:33.985Z,8816.00
2023-04-03T08:06:45.992Z,8372.00
2023-04-03T08:07:33.929Z,6636.00
2023-04-03T08:08:33.866Z,7388.00
2023-04-03T08:09:33.823Z,7764.00
2023-04-03T08:10:33.791Z,8384.00
2023-04-03T08:11:33.766Z,9524.00
2023-04-03T08:12:33.769Z,10236.00
2023-04-03T08:13:33.679Z,8948.00
2023-04-03T08:14:33.643Z,8444.00
2023-04-03T08:15:33.603Z,8596.00
2023-04-03T08:16:33.602Z,7980.00
2023-04-03T08:17:33.550Z,7908.00
2023-04-03T08:18:33.545Z,8664.00
2023-04-03T08:19:33.458Z,9812.00
2023-04-03T08:20:33.424Z,10004.00
2023-04-03T08:21:33.396Z,11604.00
2023-04-03T08:22:33.364Z,12084.00
2023-04-03T08:23:33.308Z,11756.00
2023-04-03T08:24:33.325Z,9772.00
2023-04-03T08:25:33.231Z,7984.00
2023-04-03T08:26:33.205Z,7356.00
2023-04-03T08:27:33.163Z,7028.00
2023-04-03T08:28:33.124Z,6604.00
2023-04-03T08:29:33.750Z,5840.00
2023-04-03T08:30:33.279Z,5840.00
2023-04-03T08:31:33.022Z,6208.00
2023-04-03T08:32:33.049Z,6360.00
2023-04-03T08:33:32.940Z,5948.00
2023-04-03T08:34:32.957Z,5508.00
2023-04-03T08:35:32.894Z,5656.00
2023-04-03T08:36:32.931Z,5772.00
2023-04-03T08:37:32.800Z,6164.00
2023-04-03T08:38:32.765Z,5792.00
2023-04-03T08:39:32.832Z,5452.00
2023-04-03T08:40:32.689Z,5684.00
2023-04-03T08:41:32.780Z,6052.00
2023-04-03T08:42:32.612Z,5856.00
2023-04-03T08:43:32.720Z,5340.00
2023-04-03T08:44:32.540Z,5516.00
2023-04-03T08:45:32.528Z,5948.00
2023-04-03T08:46:32.526Z,6004.00
2023-04-03T08:47:32.513Z,5772.00
2023-04-03T08:48:32.398Z,5904.00
2023-04-03T08:49:32.498Z,6064.00
2023-04-03T08:50:32.411Z,6792.00
2023-04-03T08:51:32.290Z,7516.00
2023-04-03T08:52:32.340Z,8012.00
2023-04-03T08:53:32.222Z,8284.00
2023-04-03T08:54:33.938Z,8836.00
2023-04-03T08:55:32.139Z,8432.00
2023-04-03T08:56:32.102Z,7620.00
2023-04-03T08:57:32.120Z,7492.00
2023-04-03T08:58:32.119Z,7712.00
2023-04-03T08:59:32.063Z,7372.00
2023-04-03T09:00:31.956Z,7972.00
2023-04-03T09:01:31.962Z,8648.00
2023-04-03T09:02:31.968Z,9044.00
2023-04-03T09:03:31.896Z,9652.00
2023-04-03T09:04:31.864Z,9760.00
2023-04-03T09:05:31.762Z,9472.00
2023-04-03T09:06:31.774Z,9416.00
2023-04-03T09:07:31.701Z,9720.00
2023-04-03T09:08:31.664Z,10136.00
2023-04-03T09:09:31.628Z,10936.00
2023-04-03T09:10:31.644Z,11888.00
2023-04-03T09:11:31.557Z,12460.00
2023-04-03T09:12:31.519Z,12664.00
2023-04-03T09:13:31.504Z,12768.00
2023-04-03T09:14:31.438Z,13296.00
2023-04-03T09:15:39.205Z,13768.00
2023-04-03T09:16:31.584Z,13744.00
2023-04-03T09:17:31.368Z,13456.00
2023-04-03T09:18:31.291Z,13364.00
2023-04-03T09:19:31.283Z,12972.00
2023-04-03T09:20:31.265Z,12404.00
2023-04-03T09:21:31.197Z,11836.00
2023-04-03T09:22:32.823Z,11512.00
2023-04-03T09:23:31.224Z,11156.00
2023-04-03T09:24:31.083Z,10812.00
2023-04-03T09:25:32.142Z,10536.00
2023-04-03T09:26:31.018Z,10316.00
2023-04-03T09:27:31.014Z,11016.00
2023-04-03T09:28:35.661Z,11580.00
2023-04-03T09:29:30.908Z,11692.00
2023-04-03T09:30:30.878Z,11868.00
2023-04-03T09:31:30.963Z,11988.00
2023-04-03T09:32:30.822Z,11944.00
2023-04-03T09:33:30.787Z,11572.00
2023-04-03T09:34:30.783Z,10696.00
2023-04-03T09:35:40.505Z,11020.00
2023-04-03T09:36:30.681Z,11244.00
2023-04-03T09:37:30.611Z,11340.00
2023-04-03T09:38:30.582Z,9972.00
2023-04-03T09:39:30.566Z,9516.00
2023-04-03T09:40:30.573Z,10948.00
2023-04-03T09:41:30.472Z,12080.00
2023-04-03T09:42:30.460Z,12172.00
2023-04-03T09:43:30.457Z,12040.00
2023-04-03T09:44:30.488Z,11820.00
2023-04-03T09:45:30.334Z,11652.00
2023-04-03T09:46:30.361Z,12160.00
2023-04-03T09:47:30.370Z,12572.00
2023-04-03T09:48:30.284Z,13200.00
2023-04-03T09:49:30.195Z,11988.00
2023-04-03T09:50:30.152Z,11816.00
2023-04-03T09:51:30.124Z,12844.00
2023-04-03T09:52:30.155Z,12984.00
2023-04-03T09:53:30.122Z,13132.00
2023-04-03T09:54:30.016Z,13228.00
2023-04-03T09:55:29.998Z,13800.00
2023-04-03T09:56:29.941Z,14684.00
2023-04-03T09:57:29.948Z,15196.00
2023-04-03T09:58:42.678Z,14804.00
2023-04-03T09:59:29.901Z,15152.00
2023-04-03T10:00:29.797Z,15224.00
2023-04-03T10:01:29.871Z,15188.00
2023-04-03T10:02:29.752Z,14708.00
2023-04-03T10:03:29.768Z,14648.00
2023-04-03T10:04:29.684Z,14876.00
2023-04-03T10:05:29.728Z,15232.00
2023-04-03T10:06:29.594Z,15148.00
2023-04-03T10:07:29.571Z,14432.00
2023-04-03T10:08:29.580Z,13808.00
2023-04-03T10:09:29.481Z,13408.00
2023-04-03T10:10:29.439Z,13084.00
2023-04-03T10:11:29.471Z,12512.00
2023-04-03T10:12:29.385Z,11676.00
2023-04-03T10:13:29.802Z,12140.00
2023-04-03T10:14:29.312Z,13684.00
2023-04-03T10:15:29.311Z,14500.00
2023-04-03T10:16:29.257Z,13844.00
2023-04-03T10:17:29.275Z,13136.00
2023-04-03T10:18:29.270Z,12652.00
2023-04-03T10:19:29.195Z,12416.00
2023-04-03T10:20:29.097Z,13504.00
2023-04-03T10:21:29.064Z,14352.00
2023-04-03T10:22:29.083Z,14204.00
2023-04-03T10:23:29.001Z,14096.00
2023-04-03T10:24:28.962Z,13380.00
2023-04-03T10:25:28.925Z,12196.00
2023-04-03T10:26:28.872Z,11716.00
2023-04-03T10:27:28.905Z,11844.00
2023-04-03T10:28:28.812Z,12208.00
2023-04-03T10:29:28.777Z,12460.00
2023-04-03T10:30:28.748Z,12464.00
2023-04-03T10:31:28.726Z,12732.00
2023-04-03T10:32:28.743Z,12700.00
2023-04-03T10:33:28.712Z,12760.00
2023-04-03T10:34:28.606Z,12956.00
2023-04-03T10:35:28.645Z,13116.00
2023-04-03T10:36:28.526Z,13300.00
2023-04-03T10:37:28.488Z,13560.00
2023-04-03T10:38:28.467Z,13740.00
2023-04-03T10:39:28.484Z,14032.00
2023-04-03T10:40:28.387Z,14392.00
2023-04-03T10:41:28.348Z,14168.00
2023-04-03T10:42:28.317Z,13972.00
2023-04-03T10:43:28.291Z,13364.00
2023-04-03T10:44:28.316Z,12884.00
2023-04-03T10:45:28.222Z,12448.00
2023-04-03T10:46:28.207Z,12504.00
2023-04-03T10:47:28.165Z,12984.00
2023-04-03T10:48:28.114Z,13404.00
2023-04-03T10:49:28.100Z,13336.00
2023-04-03T10:50:28.096Z,13320.00
2023-04-03T10:51:28.071Z,13172.00
2023-04-03T10:52:27.975Z,13396.00
2023-04-03T10:53:27.929Z,13444.00
2023-04-03T10:54:27.911Z,13520.00
2023-04-03T10:55:27.885Z,13988.00
2023-04-03T10:56:27.913Z,14476.00
2023-04-03T10:57:27.798Z,14768.00
2023-04-03T10:58:27.779Z,14896.00
2023-04-03T10:59:27.731Z,15028.00
2023-04-03T11:00:27.704Z,15072.00
2023-04-03T11:01:27.769Z,15456.00
2023-04-03T11:02:30.809Z,15364.00
2023-04-03T11:03:27.689Z,14672.00
2023-04-03T11:04:27.551Z,14148.00
2023-04-03T11:05:27.524Z,14048.00
2023-04-03T11:06:27.503Z,14088.00
2023-04-03T11:07:27.596Z,14324.00
2023-04-03T11:08:27.505Z,14392.00
2023-04-03T11:09:27.388Z,14316.00
2023-04-03T11:10:27.359Z,14016.00
2023-04-03T11:11:27.322Z,13856.00
2023-04-03T11:12:27.281Z,13340.00
2023-04-03T11:13:27.304Z,13096.00
2023-04-03T11:14:27.220Z,13056.00
2023-04-03T11:15:27.185Z,12796.00
2023-04-03T11:16:27.184Z,12616.00
2023-04-03T11:17:27.162Z,12388.00
2023-04-03T11:18:27.079Z,11920.00
2023-04-03T11:19:27.118Z,11120.00
2023-04-03T11:20:27.025Z,10072.00
2023-04-03T11:21:26.979Z,8692.00
2023-04-03T11:22:27.003Z,7364.00
2023-04-03T11:23:30.562Z,6796.00
2023-04-03T11:24:26.875Z,6272.00
2023-04-03T11:25:26.902Z,6256.00
2023-04-03T11:26:26.796Z,6600.00
2023-04-03T11:27:26.831Z,7248.00
2023-04-03T11:28:26.731Z,8056.00
2023-04-03T11:29:34.970Z,8796.00
2023-04-03T11:30:26.651Z,9372.00
2023-04-03T11:31:26.701Z,11140.00
2023-04-03T11:32:26.609Z,12540.00
2023-04-03T11:33:26.555Z,13824.00
2023-04-03T11:34:26.515Z,14548.00
2023-04-03T11:35:26.488Z,14400.00
2023-04-03T11:36:31.577Z,14236.00
2023-04-03T11:37:26.494Z,14296.00
2023-04-03T11:38:26.439Z,13992.00
2023-04-03T11:39:26.451Z,14244.00
2023-04-03T11:40:26.308Z,14236.00
2023-04-03T11:41:26.277Z,14772.00
2023-04-03T11:42:26.273Z,15024.00
2023-04-03T11:43:26.284Z,15972.00
2023-04-03T11:44:26.172Z,15652.00
2023-04-03T11:45:26.143Z,15812.00
2023-04-03T11:46:26.133Z,15412.00
2023-04-03T11:47:26.124Z,14800.00
2023-04-03T11:48:26.056Z,14256.00
2023-04-03T11:49:26.073Z,14044.00
2023-04-03T11:50:25.978Z,13944.00
2023-04-03T11:51:25.937Z,13716.00
2023-04-03T11:52:25.904Z,13328.00
2023-04-03T11:53:25.869Z,12796.00
2023-04-03T11:54:30.002Z,12568.00
2023-04-03T11:55:25.861Z,12224.00
2023-04-03T11:56:25.790Z,11912.00
2023-04-03T11:57:25.750Z,11880.00
2023-04-03T11:58:25.690Z,12008.00
2023-04-03T11:59:25.712Z,12296.00
2023-04-03T12:00:25.619Z,12844.00
2023-04-03T12:01:26.692Z,13528.00
2023-04-03T12:02:25.634Z,14224.00
2023-04-03T12:03:25.638Z,14616.00
2023-04-03T12:04:25.618Z,14488.00
2023-04-03T12:05:25.448Z,14160.00
2023-04-03T12:06:25.414Z,14000.00
2023-04-03T12:07:25.392Z,13700.00
2023-04-03T12:08:25.345Z,13496.00
2023-04-03T12:09:25.316Z,13744.00
2023-04-03T12:10:32.206Z,14020.00
2023-04-03T12:11:25.324Z,14212.00
2023-04-03T12:12:25.221Z,14176.00
2023-04-03T12:13:25.196Z,14052.00
2023-04-03T12:14:25.210Z,13832.00
2023-04-03T12:15:25.154Z,13664.00
2023-04-03T12:16:25.204Z,13296.00
2023-04-03T12:17:25.146Z,12744.00
2023-04-03T12:18:25.000Z,12620.00
2023-04-03T12:19:32.238Z,12428.00
2023-04-03T12:20:24.936Z,12312.00
2023-04-03T12:21:24.901Z,12172.00
2023-04-03T12:22:24.930Z,12008.00
2023-04-03T12:23:24.851Z,12028.00
2023-04-03T12:24:25.022Z,12204.00